createdAt,value
2018-09-02T00:01:27.587Z,6.20
2018-09-02T00:03:57.027Z,5.45
2018-09-02T00:06:26.685Z,6.75
2018-09-02T00:08:56.093Z,4.90
2018-09-02T00:11:25.507Z,6.08
2018-09-02T00:13:54.907Z,6.80
2018-09-02T00:16:24.260Z,4.75
2018-09-02T00:18:53.836Z,6.15
2018-09-02T00:21:23.161Z,6.22
2018-09-02T00:23:52.789Z,6.03
2018-09-02T00:26:22.169Z,8.90
2018-09-02T00:28:51.636Z,5.78
2018-09-02T00:31:21.031Z,5.78
2018-09-02T00:33:50.382Z,8.88
2018-09-02T00:36:19.861Z,7.78
2018-09-02T00:38:49.197Z,8.63
2018-09-02T00:41:18.601Z,6.85
2018-09-02T00:43:47.933Z,7.08
2018-09-02T00:46:17.337Z,6.03
2018-09-02T00:48:46.730Z,7.10
2018-09-02T00:51:16.103Z,10.72
2018-09-02T00:53:45.436Z,7.08
2018-09-02T00:56:14.860Z,4.90
2018-09-02T00:58:44.198Z,5.62
2018-09-02T01:01:13.593Z,5.83
2018-09-02T01:03:42.936Z,6.75
2018-09-02T01:06:12.254Z,7.20
2018-09-02T01:08:41.590Z,6.08
2018-09-02T01:11:10.955Z,5.85
2018-09-02T01:13:40.366Z,4.75
2018-09-02T01:16:09.722Z,5.97
2018-09-02T01:18:39.058Z,5.55
2018-09-02T01:21:08.378Z,4.50
2018-09-02T01:23:37.713Z,6.33
2018-09-02T01:26:07.076Z,6.17
2018-09-02T01:28:36.424Z,9.00
2018-09-02T01:31:06.196Z,6.65
2018-09-02T01:33:35.551Z,6.85
2018-09-02T01:36:04.906Z,7.67
2018-09-02T01:38:34.245Z,7.67
2018-09-02T01:41:03.617Z,5.15
2018-09-02T01:43:32.992Z,6.83
2018-09-02T01:46:02.316Z,8.08
2018-09-02T01:48:31.656Z,7.37
2018-09-02T01:51:01.028Z,4.70
2018-09-02T01:53:30.441Z,5.45
2018-09-02T01:55:59.763Z,5.30
2018-09-02T01:58:29.064Z,5.65
2018-09-02T02:00:58.495Z,5.92
2018-09-02T02:03:27.812Z,5.72
2018-09-02T02:05:57.168Z,4.12
2018-09-02T02:08:26.526Z,4.40
2018-09-02T02:10:55.958Z,3.65
2018-09-02T02:13:25.338Z,5.10
2018-09-02T02:15:54.662Z,4.08
2018-09-02T02:18:24.017Z,4.65
2018-09-02T02:20:53.328Z,3.37
2018-09-02T02:23:22.689Z,3.60
2018-09-02T02:25:52.061Z,3.42
2018-09-02T02:28:21.603Z,3.72
2018-09-02T02:30:50.935Z,3.02
2018-09-02T02:33:20.258Z,4.03
2018-09-02T02:35:49.628Z,3.90
2018-09-02T02:38:18.967Z,4.10
2018-09-02T02:40:48.313Z,3.95
2018-09-02T02:43:17.668Z,4.80
2018-09-02T02:45:47.023Z,6.65
2018-09-02T02:48:16.362Z,3.92
2018-09-02T02:50:45.716Z,3.67
2018-09-02T02:53:15.149Z,4.25
2018-09-02T02:55:44.519Z,5.30
2018-09-02T02:58:13.832Z,3.87
2018-09-02T03:00:43.172Z,3.60
2018-09-02T03:03:12.495Z,4.00
2018-09-02T03:05:41.883Z,3.50
2018-09-02T03:08:11.573Z,3.20
2018-09-02T03:10:41.250Z,4.35
2018-09-02T03:13:10.839Z,3.10
2018-09-02T03:15:41.137Z,4.15
2018-09-02T03:18:10.552Z,4.53
2018-09-02T03:20:40.001Z,4.15
2018-09-02T03:23:09.333Z,4.67
2018-09-02T03:25:38.741Z,3.50
2018-09-02T03:28:08.111Z,4.00
2018-09-02T03:30:37.426Z,5.30
2018-09-02T03:33:06.965Z,3.47
2018-09-02T03:35:36.297Z,3.60
2018-09-02T03:38:05.800Z,3.55
2018-09-02T03:40:35.102Z,4.40
2018-09-02T03:43:04.672Z,3.83
2018-09-02T03:45:34.006Z,4.20
2018-09-02T03:48:03.407Z,3.75
2018-09-02T03:50:32.804Z,3.30
2018-09-02T03:53:02.489Z,6.83
2018-09-02T03:55:31.859Z,5.60
2018-09-02T03:58:01.192Z,5.65
2018-09-02T04:00:30.530Z,4.03
2018-09-02T04:02:59.852Z,5.08
2018-09-02T04:05:29.174Z,4.50
2018-09-02T04:07:58.513Z,4.72
2018-09-02T04:10:27.863Z,6.83
2018-09-02T04:12:57.192Z,4.17
2018-09-02T04:15:26.511Z,5.30
2018-09-02T04:17:56.104Z,6.22
2018-09-02T04:20:34.174Z,3.58
2018-09-02T04:23:04.285Z,5.03
2018-09-02T04:25:34.129Z,4.03
2018-09-02T04:28:03.476Z,3.85
2018-09-02T04:30:32.791Z,4.00
2018-09-02T04:33:02.149Z,3.40
2018-09-02T04:35:31.458Z,5.33
2018-09-02T04:38:00.792Z,3.58
2018-09-02T04:40:30.280Z,5.20
2018-09-02T04:42:59.681Z,3.12
2018-09-02T04:45:29.077Z,4.35
2018-09-02T04:47:58.484Z,3.42
2018-09-02T04:50:27.832Z,4.28
2018-09-02T04:52:57.192Z,3.67
2018-09-02T04:55:26.529Z,5.10
2018-09-02T04:57:55.852Z,4.75
2018-09-02T05:00:25.323Z,3.65
2018-09-02T05:02:54.593Z,3.77
2018-09-02T05:05:23.893Z,5.40
2018-09-02T05:07:53.249Z,5.40
2018-09-02T05:10:22.684Z,4.00
2018-09-02T05:12:52.005Z,3.92
2018-09-02T05:15:21.342Z,3.47
2018-09-02T05:17:50.865Z,4.17
2018-09-02T05:20:20.234Z,4.35
2018-09-02T05:22:49.577Z,5.87
2018-09-02T05:25:18.984Z,4.83
2018-09-02T05:27:48.369Z,4.87
2018-09-02T05:30:17.778Z,4.53
2018-09-02T05:32:47.185Z,3.50
2018-09-02T05:35:16.594Z,3.65
2018-09-02T05:37:46.068Z,4.47
2018-09-02T05:40:15.531Z,3.72
2018-09-02T05:42:44.915Z,2.80
2018-09-02T05:45:14.221Z,4.50
2018-09-02T05:47:43.546Z,2.80
2018-09-02T05:50:12.879Z,3.62
2018-09-02T05:52:42.241Z,3.70
2018-09-02T05:55:11.566Z,4.50
2018-09-02T05:57:40.949Z,3.42
2018-09-02T06:00:10.469Z,3.10
2018-09-02T06:02:39.885Z,4.00
2018-09-02T06:05:09.304Z,3.62
2018-09-02T06:07:38.641Z,4.50
2018-09-02T06:10:08.064Z,3.62
2018-09-02T06:12:37.530Z,4.42
2018-09-02T06:15:06.940Z,3.72
2018-09-02T06:17:36.297Z,7.30
2018-09-02T06:20:05.690Z,3.70
2018-09-02T06:22:35.021Z,3.92
2018-09-02T06:25:04.399Z,4.22
2018-09-02T06:27:33.724Z,3.58
2018-09-02T06:30:03.104Z,4.37
2018-09-02T06:32:32.541Z,4.50
2018-09-02T06:35:01.865Z,3.95
2018-09-02T06:37:31.238Z,4.55
2018-09-02T06:40:00.632Z,3.72
2018-09-02T06:42:29.976Z,3.77
2018-09-02T06:44:59.340Z,3.22
2018-09-02T06:47:28.701Z,4.12
2018-09-02T06:49:58.059Z,4.83
2018-09-02T06:52:27.379Z,3.92
2018-09-02T06:54:56.717Z,5.37
2018-09-02T06:57:26.046Z,4.05
2018-09-02T06:59:55.437Z,3.70
2018-09-02T07:02:24.809Z,3.37
2018-09-02T07:04:54.159Z,2.47
2018-09-02T07:07:23.647Z,2.80
2018-09-02T07:09:53.016Z,3.17
2018-09-02T07:12:22.357Z,2.77
2018-09-02T07:14:51.737Z,3.10
2018-09-02T07:17:21.226Z,3.15
2018-09-02T07:19:50.540Z,4.12
2018-09-02T07:22:19.873Z,2.80
2018-09-02T07:24:49.313Z,2.80
2018-09-02T07:27:18.815Z,2.20
2018-09-02T07:29:48.184Z,2.60
2018-09-02T07:32:17.503Z,2.02
2018-09-02T07:34:47.151Z,2.37
2018-09-02T07:37:16.538Z,4.00
2018-09-02T07:39:45.874Z,3.90
2018-09-02T07:42:15.308Z,2.90
2018-09-02T07:44:44.745Z,3.08
2018-09-02T07:47:15.590Z,3.22
2018-09-02T07:49:44.975Z,2.42
2018-09-02T07:52:14.305Z,3.47
2018-09-02T07:54:43.654Z,2.70
2018-09-02T07:57:13.077Z,3.17
2018-09-02T07:59:42.656Z,3.58
2018-09-02T08:02:12.077Z,3.55
2018-09-02T08:04:41.518Z,3.70
2018-09-02T08:07:11.205Z,4.00
2018-09-02T08:09:40.567Z,4.95
2018-09-02T08:12:10.102Z,4.90
2018-09-02T08:14:40.431Z,5.33
2018-09-02T08:17:09.813Z,4.53
2018-09-02T08:19:39.271Z,4.62
2018-09-02T08:22:08.785Z,4.85
2018-09-02T08:24:38.150Z,5.65
2018-09-02T08:27:07.552Z,7.15
2018-09-02T08:29:36.976Z,6.58
2018-09-02T08:32:06.397Z,5.95
2018-09-02T08:34:35.752Z,5.83
2018-09-02T08:37:05.253Z,5.83
2018-09-02T08:39:34.988Z,9.08
2018-09-02T08:42:04.330Z,6.08
2018-09-02T08:44:33.817Z,9.25
2018-09-02T08:47:03.289Z,6.33
2018-09-02T08:49:32.652Z,6.45
2018-09-02T08:52:01.996Z,6.58
2018-09-02T08:54:31.501Z,7.12
2018-09-02T08:57:00.936Z,6.83
2018-09-02T08:59:30.380Z,6.50
2018-09-02T09:01:59.788Z,6.55
2018-09-02T09:04:29.179Z,5.75
2018-09-02T09:06:58.592Z,5.30
2018-09-02T09:09:27.987Z,6.15
2018-09-02T09:11:57.372Z,7.60
2018-09-02T09:14:26.802Z,5.90
2018-09-02T09:16:56.374Z,6.97
2018-09-02T09:19:25.783Z,8.75
2018-09-02T09:21:55.385Z,6.50
2018-09-02T09:24:24.860Z,7.20
2018-09-02T09:26:54.269Z,8.05
2018-09-02T09:29:23.695Z,8.40
2018-09-02T09:31:53.138Z,9.15
2018-09-02T09:34:22.500Z,7.42
2018-09-02T09:36:52.014Z,8.73
2018-09-02T09:39:21.369Z,7.37
2018-09-02T09:41:50.733Z,8.68
2018-09-02T09:44:20.137Z,7.62
2018-09-02T09:46:49.572Z,7.10
2018-09-02T09:49:19.036Z,8.30
2018-09-02T09:51:48.591Z,9.30
2018-09-02T09:54:17.983Z,7.67
2018-09-02T09:56:47.335Z,8.33
2018-09-02T09:59:16.749Z,8.40
2018-09-02T10:01:46.272Z,8.18
2018-09-02T10:04:15.641Z,7.70
2018-09-02T10:06:45.019Z,9.83
2018-09-02T10:09:15.502Z,10.35
2018-09-02T10:11:45.484Z,9.80
2018-09-02T10:14:14.812Z,8.23
2018-09-02T10:16:44.148Z,11.18
2018-09-02T10:19:13.545Z,9.38
2018-09-02T10:21:42.896Z,8.50
2018-09-02T10:24:12.334Z,10.80
2018-09-02T10:26:41.909Z,12.03
2018-09-02T10:29:11.324Z,10.63
2018-09-02T10:31:40.829Z,10.98
2018-09-02T10:34:10.299Z,12.45
2018-09-02T10:36:39.996Z,10.98
2018-09-02T10:39:09.989Z,10.95
2018-09-02T10:41:39.401Z,10.82
2018-09-02T10:44:08.786Z,11.53
2018-09-02T10:46:38.188Z,12.50
2018-09-02T10:49:07.632Z,11.83
2018-09-02T10:51:37.017Z,10.82
2018-09-02T10:54:07.994Z,11.25
2018-09-02T10:56:37.419Z,12.50
2018-09-02T10:59:07.113Z,11.53
2018-09-02T11:01:36.497Z,13.43
2018-09-02T11:04:06.048Z,12.88
2018-09-02T11:06:35.599Z,10.30
2018-09-02T11:09:07.904Z,13.15
2018-09-02T11:11:37.399Z,11.08
2018-09-02T11:14:07.437Z,9.78
2018-09-02T11:16:37.256Z,11.28
2018-09-02T11:19:07.794Z,13.22
2018-09-02T11:21:37.182Z,10.68
2018-09-02T11:24:06.832Z,9.15
2018-09-02T11:26:36.301Z,10.63
2018-09-02T11:29:06.097Z,10.90
2018-09-02T11:31:35.589Z,14.53
2018-09-02T11:34:05.090Z,12.88
2018-09-02T11:36:34.421Z,13.00
2018-09-02T11:39:05.269Z,10.10
2018-09-02T11:41:34.609Z,11.53
2018-09-02T11:44:04.089Z,12.45
2018-09-02T11:46:33.719Z,15.48
2018-09-02T11:49:03.312Z,11.78
2018-09-02T11:51:32.799Z,11.38
2018-09-02T11:54:02.229Z,10.68
2018-09-02T11:56:31.671Z,13.83
2018-09-02T11:59:01.113Z,11.50
2018-09-02T12:01:30.701Z,10.78
2018-09-02T12:04:00.359Z,10.15
2018-09-02T12:06:29.978Z,11.88
2018-09-02T12:08:59.400Z,10.82
2018-09-02T12:11:28.811Z,11.63
2018-09-02T12:13:58.164Z,12.75
2018-09-02T12:16:27.465Z,11.60
2018-09-02T12:18:56.845Z,11.93
2018-09-02T12:21:26.345Z,11.03
2018-09-02T12:23:55.766Z,11.97
2018-09-02T12:26:25.145Z,11.88
2018-09-02T12:28:54.634Z,10.72
2018-09-02T12:31:24.026Z,11.08
2018-09-02T12:33:53.397Z,11.40
2018-09-02T12:36:22.761Z,11.38
2018-09-02T12:38:52.153Z,11.95
2018-09-02T12:41:21.537Z,11.80
2018-09-02T12:43:51.011Z,11.93
2018-09-02T12:46:20.492Z,8.85
2018-09-02T12:48:49.845Z,8.95
2018-09-02T12:51:19.325Z,12.90
2018-09-02T12:53:48.672Z,12.20
2018-09-02T12:56:18.046Z,13.00
2018-09-02T12:58:47.606Z,13.35
2018-09-02T13:01:17.805Z,11.68
2018-09-02T13:03:48.049Z,12.88
2018-09-02T13:06:17.625Z,13.43
2018-09-02T13:08:47.163Z,12.90
2018-09-02T13:11:16.583Z,12.80
2018-09-02T13:13:46.159Z,11.45
2018-09-02T13:16:16.303Z,12.68
2018-09-02T13:18:45.911Z,13.30
2018-09-02T13:21:15.392Z,14.58
2018-09-02T13:23:45.775Z,14.47
2018-09-02T13:26:15.163Z,12.95
2018-09-02T13:28:44.875Z,15.55
2018-09-02T13:31:14.347Z,20.17
2018-09-02T13:33:44.092Z,15.65
2018-09-02T13:36:13.621Z,12.85
2018-09-02T13:38:43.222Z,16.00
2018-09-02T13:41:12.606Z,15.93
2018-09-02T13:43:42.097Z,14.38
2018-09-02T13:46:11.454Z,12.93
2018-09-02T13:48:40.876Z,14.25
2018-09-02T13:51:10.259Z,17.25
2018-09-02T13:53:39.634Z,17.60
2018-09-02T13:56:09.167Z,16.05
2018-09-02T13:58:38.573Z,16.32
2018-09-02T14:01:08.008Z,15.72
2018-09-02T14:03:37.531Z,17.90
2018-09-02T14:06:06.950Z,15.05
2018-09-02T14:08:37.406Z,15.60
2018-09-02T14:11:06.852Z,16.90
2018-09-02T14:13:36.407Z,16.25
2018-09-02T14:16:06.005Z,16.42
2018-09-02T14:18:35.413Z,16.27
2018-09-02T14:21:05.165Z,17.57
2018-09-02T14:23:34.570Z,16.97
2018-09-02T14:26:05.285Z,14.55
2018-09-02T14:28:34.866Z,15.43
2018-09-02T14:31:04.774Z,13.62
2018-09-02T14:33:34.189Z,12.60
2018-09-02T14:36:03.761Z,13.10
2018-09-02T14:38:33.190Z,14.95
2018-09-02T14:41:03.837Z,16.10
2018-09-02T14:43:33.356Z,16.77
2018-09-02T14:46:03.656Z,14.63
2018-09-02T14:48:33.158Z,14.80
2018-09-02T14:51:03.142Z,15.30
2018-09-02T14:53:32.732Z,14.25
2018-09-02T14:56:04.287Z,14.98
2018-09-02T14:58:33.837Z,14.98
2018-09-02T15:01:03.344Z,16.93
2018-09-02T15:03:32.935Z,15.72
2018-09-02T15:06:02.847Z,16.40
2018-09-02T15:08:32.293Z,14.33
2018-09-02T15:11:01.676Z,16.82
2018-09-02T15:13:31.212Z,15.13
2018-09-02T15:16:00.645Z,15.40
2018-09-02T15:18:30.065Z,17.32
2018-09-02T15:20:59.729Z,17.92
2018-09-02T15:23:29.207Z,16.62
2018-09-02T15:25:59.271Z,16.73
2018-09-02T15:28:28.639Z,16.67
2018-09-02T15:30:58.201Z,15.78
2018-09-02T15:33:27.761Z,16.55
2018-09-02T15:35:57.233Z,16.67
2018-09-02T15:38:26.690Z,15.65
2018-09-02T15:40:56.223Z,15.95
2018-09-02T15:43:25.769Z,16.80
2018-09-02T15:45:55.543Z,17.98
2018-09-02T15:48:24.872Z,14.93
2018-09-02T15:50:54.349Z,17.48
2018-09-02T15:53:24.366Z,17.52
2018-09-02T15:55:54.026Z,16.85
2018-09-02T15:58:23.425Z,16.97
2018-09-02T16:00:52.879Z,16.52
2018-09-02T16:03:22.410Z,19.15
2018-09-02T16:05:51.831Z,18.27
2018-09-02T16:08:22.093Z,16.37
2018-09-02T16:10:51.785Z,15.35
2018-09-02T16:13:21.398Z,14.95
2018-09-02T16:15:50.861Z,16.77
2018-09-02T16:18:20.351Z,15.95
2018-09-02T16:20:50.630Z,17.52
2018-09-02T16:23:20.050Z,16.45
2018-09-02T16:25:49.594Z,15.75
2018-09-02T16:28:19.856Z,14.53
2018-09-02T16:30:49.364Z,16.67
2018-09-02T16:33:18.924Z,16.62
2018-09-02T16:35:49.025Z,14.03
2018-09-02T16:38:18.656Z,14.07
2018-09-02T16:40:48.284Z,14.23
2018-09-02T16:43:17.724Z,16.75
2018-09-02T16:45:47.150Z,14.38
2018-09-02T16:48:16.521Z,15.10
2018-09-02T16:50:46.745Z,16.07
2018-09-02T16:53:17.004Z,15.68
2018-09-02T16:55:46.352Z,14.18
2018-09-02T16:58:15.666Z,16.57
2018-09-02T17:00:45.127Z,13.30
2018-09-02T17:03:14.527Z,12.15
2018-09-02T17:05:43.958Z,12.05
2018-09-02T17:08:13.393Z,11.73
2018-09-02T17:10:42.935Z,11.50
2018-09-02T17:13:12.416Z,10.53
2018-09-02T17:15:42.074Z,10.95
2018-09-02T17:18:11.627Z,11.25
2018-09-02T17:20:43.371Z,12.00
2018-09-02T17:23:13.693Z,15.15
2018-09-02T17:25:44.076Z,13.62
2018-09-02T17:28:13.756Z,12.78
2018-09-02T17:30:43.157Z,13.53
2018-09-02T17:33:13.887Z,14.30
2018-09-02T17:35:43.495Z,11.73
2018-09-02T17:38:13.107Z,16.07
2018-09-02T17:40:42.552Z,13.55
2018-09-02T17:43:11.953Z,12.40
2018-09-02T17:45:41.491Z,13.05
2018-09-02T17:48:10.897Z,12.10
2018-09-02T17:50:41.283Z,12.10
2018-09-02T17:53:11.329Z,12.40
2018-09-02T17:55:41.370Z,14.83
2018-09-02T17:58:10.881Z,13.28
2018-09-02T18:00:43.540Z,13.60
2018-09-02T18:03:13.005Z,15.83
2018-09-02T18:05:43.010Z,15.58
2018-09-02T18:08:12.616Z,14.63
2018-09-02T18:10:42.226Z,16.02
2018-09-02T18:13:11.699Z,15.85
2018-09-02T18:15:41.424Z,15.08
2018-09-02T18:18:10.880Z,16.25
2018-09-02T18:20:40.671Z,15.72
2018-09-02T18:23:10.085Z,14.50
2018-09-02T18:25:39.894Z,14.70
2018-09-02T18:28:12.716Z,15.10
2018-09-02T18:30:43.047Z,15.60
2018-09-02T18:33:12.528Z,16.48
2018-09-02T18:35:42.036Z,14.58
2018-09-02T18:38:11.766Z,14.53
2018-09-02T18:40:41.152Z,14.25
2018-09-02T18:43:10.531Z,13.93
2018-09-02T18:45:39.951Z,14.38
2018-09-02T18:48:09.433Z,13.10
2018-09-02T18:50:38.795Z,13.05
2018-09-02T18:53:08.402Z,13.80
2018-09-02T18:55:37.868Z,13.88
2018-09-02T18:58:07.293Z,13.85
2018-09-02T19:00:37.196Z,13.50
2018-09-02T19:03:07.371Z,14.90
2018-09-02T19:05:37.353Z,13.98
2018-09-02T19:08:07.014Z,14.38
2018-09-02T19:10:37.105Z,13.53
2018-09-02T19:13:06.793Z,13.18
2018-09-02T19:15:37.624Z,13.53
2018-09-02T19:18:07.209Z,13.32
2018-09-02T19:20:36.973Z,14.95
2018-09-02T19:23:06.723Z,13.58
2018-09-02T19:25:36.266Z,13.08
2018-09-02T19:28:06.451Z,13.88
2018-09-02T19:30:35.842Z,13.72
2018-09-02T19:33:05.402Z,14.00
2018-09-02T19:35:35.043Z,13.65
2018-09-02T19:38:04.618Z,13.70
2018-09-02T19:40:34.123Z,12.47
2018-09-02T19:43:03.580Z,14.70
2018-09-02T19:45:33.645Z,13.95
2018-09-02T19:48:03.146Z,12.98
2018-09-02T19:50:32.602Z,12.93
2018-09-02T19:53:02.032Z,14.65
2018-09-02T19:55:31.399Z,13.75
2018-09-02T19:58:00.821Z,13.08
2018-09-02T20:00:30.293Z,12.25
2018-09-02T20:02:59.772Z,12.65
2018-09-02T20:05:29.153Z,12.58
2018-09-02T20:07:58.543Z,12.43
2018-09-02T20:10:27.955Z,13.48
2018-09-02T20:12:57.304Z,12.47
2018-09-02T20:15:26.807Z,15.72
2018-09-02T20:17:56.283Z,14.15
2018-09-02T20:20:25.685Z,13.30
2018-09-02T20:22:55.042Z,12.68
2018-09-02T20:25:24.396Z,13.30
2018-09-02T20:27:53.715Z,14.38
2018-09-02T20:30:23.331Z,12.93
2018-09-02T20:32:52.820Z,15.48
2018-09-02T20:35:22.197Z,13.88
2018-09-02T20:37:51.735Z,12.58
2018-09-02T20:40:22.208Z,12.28
2018-09-02T20:42:51.590Z,12.18
2018-09-02T20:45:21.144Z,15.20
2018-09-02T20:47:50.496Z,13.90
2018-09-02T20:50:19.864Z,14.70
2018-09-02T20:52:49.245Z,14.10
2018-09-02T20:55:18.572Z,14.25
2018-09-02T20:57:48.527Z,13.68
2018-09-02T21:00:17.872Z,14.20
2018-09-02T21:02:47.352Z,13.93
2018-09-02T21:05:17.214Z,15.85
2018-09-02T21:07:46.908Z,14.20
2018-09-02T21:10:16.262Z,15.45
2018-09-02T21:12:45.605Z,14.63
2018-09-02T21:15:15.195Z,13.20
2018-09-02T21:17:44.617Z,14.47
2018-09-02T21:20:14.015Z,14.53
2018-09-02T21:22:43.381Z,14.50
2018-09-02T21:25:12.734Z,15.48
2018-09-02T21:27:42.166Z,15.63
2018-09-02T21:30:11.535Z,15.75
2018-09-02T21:32:40.925Z,15.38
2018-09-02T21:35:10.279Z,15.60
2018-09-02T21:37:39.631Z,14.07
2018-09-02T21:40:09.035Z,13.85
2018-09-02T21:42:38.375Z,14.30
2018-09-02T21:45:07.944Z,14.55
2018-09-02T21:47:37.310Z,15.10
2018-09-02T21:50:06.897Z,14.73
2018-09-02T21:52:36.448Z,14.70
2018-09-02T21:55:06.068Z,13.68
2018-09-02T21:57:36.002Z,14.03
2018-09-02T22:00:08.144Z,14.80
2018-09-02T22:02:37.478Z,16.32
2018-09-02T22:05:09.212Z,16.65
2018-09-02T22:07:38.660Z,14.60
2018-09-02T22:10:08.274Z,15.78
2018-09-02T22:12:37.621Z,16.07
2018-09-02T22:15:07.810Z,17.17
2018-09-02T22:17:37.179Z,17.27
2018-09-02T22:20:06.698Z,17.98
2018-09-02T22:22:36.025Z,18.45
2018-09-02T22:25:06.344Z,20.12
2018-09-02T22:27:35.675Z,18.20
2018-09-02T22:30:05.515Z,16.17
2018-09-02T22:32:34.848Z,15.90
2018-09-02T22:35:04.220Z,16.75
2018-09-02T22:37:33.612Z,15.00
2018-09-02T22:40:03.013Z,15.48
2018-09-02T22:42:32.359Z,16.97
2018-09-02T22:45:01.711Z,17.45
2018-09-02T22:47:31.055Z,18.73
2018-09-02T22:50:00.432Z,18.25
2018-09-02T22:52:29.778Z,18.52
2018-09-02T22:54:59.128Z,18.57
2018-09-02T22:57:28.493Z,19.55
2018-09-02T22:59:57.829Z,15.20
2018-09-02T23:02:27.201Z,18.00
2018-09-02T23:04:56.543Z,16.40
2018-09-02T23:07:25.886Z,16.20
2018-09-02T23:09:55.231Z,17.32
2018-09-02T23:12:24.649Z,20.68
2018-09-02T23:14:53.993Z,18.60
2018-09-02T23:17:23.319Z,16.02
2018-09-02T23:19:52.729Z,15.65
2018-09-02T23:22:22.101Z,16.05
2018-09-02T23:24:51.543Z,16.00
2018-09-02T23:27:20.906Z,18.37
2018-09-02T23:29:50.263Z,16.62
2018-09-02T23:32:19.625Z,16.37
2018-09-02T23:34:48.985Z,15.70
2018-09-02T23:37:18.222Z,17.45
2018-09-02T23:39:47.495Z,16.90
2018-09-02T23:42:16.751Z,17.07
2018-09-02T23:44:46.090Z,16.30
2018-09-02T23:47:15.408Z,18.92
2018-09-02T23:49:44.711Z,16.93
2018-09-02T23:52:13.997Z,16.27
2018-09-02T23:54:43.221Z,18.67
2018-09-02T23:57:12.482Z,16.87
2018-09-02T23:59:41.716Z,16.12
